Time;durP1;ratioP1;P1;durP2;ratioP2;P2;SDS_P1;SDS_P2;PMS_P1;PMS_P2;Temp;Humidity;BMP_temperature;BMP_pressure;BME280_temperature;BME280_humidity;BME280_pressure;Samples;Min_cycle;Max_cycle;Signal;HPM_P1;HPM_P2
2022/06/29 00:00:31;;;;;;;5.07;3.45;;;;;;;17.22;40.40;100161.75;5122802;27;20519;-70
2022/06/29 00:02:56;;;;;;;4.07;3.10;;;;;;;17.19;40.35;100164.72;5104543;27;20034;-71
2022/06/29 00:05:24;;;;;;;7.32;3.75;;;;;;;17.17;40.66;100168.53;5100388;27;20039;-69
2022/06/29 00:07:50;;;;;;;6.22;2.85;;;;;;;17.13;40.74;100165.28;5118992;27;20050;-68
2022/06/29 00:10:15;;;;;;;3.00;2.78;;;;;;;17.15;40.02;100167.84;5101504;27;20381;-69
2022/06/29 00:12:43;;;;;;;5.95;3.00;;;;;;;17.13;41.00;100169.81;5121773;27;20038;-69
2022/06/29 00:15:08;;;;;;;3.35;2.67;;;;;;;17.13;39.96;100175.22;5121371;27;20042;-70
2022/06/29 00:17:33;;;;;;;3.47;2.67;;;;;;;17.14;39.91;100169.69;5130328;27;20049;-70
2022/06/29 00:19:59;;;;;;;4.15;3.22;;;;;;;17.18;39.61;100172.94;5133595;27;20064;-72
2022/06/29 00:22:25;;;;;;;6.03;3.15;;;;;;;17.09;40.22;100180.00;5131285;27;20078;-70
2022/06/29 00:24:49;;;;;;;5.03;3.00;;;;;;;17.15;39.51;100182.19;5128535;27;20075;-71
2022/06/29 00:27:14;;;;;;;5.38;3.15;;;;;;;17.14;39.58;100174.22;5124651;27;20484;-66
2022/06/29 00:29:39;;;;;;;4.53;3.05;;;;;;;17.05;39.94;100174.03;5120207;27;20560;-65
2022/06/29 00:32:05;;;;;;;3.58;2.80;;;;;;;16.96;40.54;100185.66;5116580;27;20035;-67
2022/06/29 00:34:30;;;;;;;4.72;3.08;;;;;;;16.90;40.33;100175.44;5116260;27;20504;-66
2022/06/29 00:36:55;;;;;;;5.82;2.85;;;;;;;16.88;40.40;100169.34;5116477;27;20637;-67
2022/06/29 00:39:19;;;;;;;7.22;3.28;;;;;;;16.83;41.50;100174.25;5116420;27;20135;-68
2022/06/29 00:41:45;;;;;;;4.30;2.67;;;;;;;16.81;41.38;100173.56;5097509;27;20137;-67
2022/06/29 00:44:15;;;;;;;6.15;3.45;;;;;;;16.81;40.92;100173.56;5116065;27;20102;-68
2022/06/29 00:46:47;;;;;;;6.28;2.95;;;;;;;16.79;41.28;100170.16;5097968;27;20117;-70
2022/06/29 00:49:14;;;;;;;5.43;3.05;;;;;;;16.78;41.28;100172.97;5126745;27;20512;-73
2022/06/29 00:51:40;;;;;;;3.92;3.13;;;;;;;16.82;41.16;100169.84;5116978;27;20405;-69
2022/06/29 00:54:06;;;;;;;5.60;3.47;;;;;;;16.81;40.96;100168.19;5082377;27;20134;-72
2022/06/29 00:56:32;;;;;;;3.80;2.80;;;;;;;16.74;41.59;100158.94;5116470;27;20085;-71
2022/06/29 00:59:01;;;;;;;4.30;3.17;;;;;;;16.73;41.78;100168.00;5097966;27;20043;-71
2022/06/29 01:01:26;;;;;;;4.70;2.17;;;;;;;16.74;42.24;100164.31;5116209;27;20050;-71
2022/06/29 01:03:51;;;;;;;4.40;3.08;;;;;;;16.74;41.97;100163.47;5118811;27;20042;-72
2022/06/29 01:06:16;;;;;;;3.80;3.15;;;;;;;16.75;42.51;100163.31;5106790;27;20049;-73
2022/06/29 01:08:41;;;;;;;8.23;3.33;;;;;;;16.77;42.31;100163.19;5109052;27;20053;-76
2022/06/29 01:11:06;;;;;;;5.25;3.42;;;;;;;16.78;42.66;100154.97;5099389;27;20038;-73
2022/06/29 01:13:30;;;;;;;6.43;3.25;;;;;;;16.79;42.44;100161.22;5098688;27;20394;-75
2022/06/29 01:15:55;;;;;;;6.90;3.22;;;;;;;16.80;42.91;100153.00;5117379;27;20046;-74
2022/06/29 01:18:20;;;;;;;9.95;3.22;;;;;;;16.80;42.59;100160.25;5102764;27;20134;-73
2022/06/29 01:20:45;;;;;;;5.75;3.50;;;;;;;16.82;42.50;100155.53;5120251;27;20042;-71
2022/06/29 01:23:09;;;;;;;5.80;3.05;;;;;;;16.81;41.98;100157.41;5119701;27;20524;-69
2022/06/29 01:25:34;;;;;;;6.30;3.35;;;;;;;16.83;42.72;100163.50;5119912;27;20035;-69
2022/06/29 01:27:59;;;;;;;5.30;2.50;;;;;;;16.80;42.76;100158.41;5101421;27;20772;-69
2022/06/29 01:30:24;;;;;;;6.22;2.83;;;;;;;16.85;42.85;100161.50;5101241;27;20042;-69
2022/06/29 01:32:49;;;;;;;5.68;3.42;;;;;;;16.86;42.80;100160.53;5084187;27;20416;-70
2022/06/29 01:35:16;;;;;;;8.32;3.83;;;;;;;16.90;42.92;100163.81;5101224;27;20455;-69
2022/06/29 01:37:42;;;;;;;6.38;3.45;;;;;;;16.89;43.18;100168.34;5101382;27;20531;-72
2022/06/29 01:40:08;;;;;;;7.97;3.13;;;;;;;16.92;42.89;100176.16;5101089;27;20039;-71
2022/06/29 01:42:33;;;;;;;6.47;3.70;;;;;;;16.95;41.96;100178.56;5101296;27;20062;-74
2022/06/29 01:44:58;;;;;;;4.40;3.50;;;;;;;16.96;41.96;100165.94;5083761;27;20069;-73
2022/06/29 01:47:23;;;;;;;6.78;3.20;;;;;;;16.97;42.53;100162.25;5120588;27;20038;-68
2022/06/29 01:49:47;;;;;;;10.38;3.40;;;;;;;16.98;43.18;100163.97;5119471;27;20147;-70
2022/06/29 01:52:12;;;;;;;5.75;2.80;;;;;;;17.02;43.15;100173.50;5083329;27;20046;-71
2022/06/29 01:54:37;;;;;;;5.70;3.00;;;;;;;17.05;43.23;100167.81;5083833;27;20054;-68
2022/06/29 01:57:02;;;;;;;6.05;3.40;;;;;;;17.09;44.19;100165.69;5119609;27;20696;-69
2022/06/29 01:59:27;;;;;;;7.55;3.20;;;;;;;17.13;42.97;100164.44;5119160;27;20412;-68
2022/06/29 02:01:52;;;;;;;4.95;3.58;;;;;;;17.16;42.47;100172.22;5119887;27;20378;-69
2022/06/29 02:04:17;;;;;;;10.25;4.00;;;;;;;17.16;42.41;100166.84;5100187;27;20389;-67
2022/06/29 02:06:42;;;;;;;5.93;3.55;;;;;;;17.16;42.60;100172.22;5119116;27;20034;-66
2022/06/29 02:09:07;;;;;;;7.78;4.00;;;;;;;17.18;42.66;100168.41;5118816;27;20215;-66
2022/06/29 02:11:31;;;;;;;9.68;4.43;;;;;;;17.19;42.70;100169.25;5118858;27;20440;-76
2022/06/29 02:13:56;;;;;;;6.90;3.97;;;;;;;17.21;42.71;100168.13;5118807;27;20046;-72
2022/06/29 02:16:21;;;;;;;10.93;4.10;;;;;;;17.24;42.47;100164.31;5118855;27;20039;-72
2022/06/29 02:18:46;;;;;;;9.40;4.05;;;;;;;17.30;42.19;100166.44;5099714;27;20561;-69
2022/06/29 02:21:10;;;;;;;9.07;4.05;;;;;;;17.31;42.55;100166.31;5102151;27;20054;-69
2022/06/29 02:23:35;;;;;;;5.45;3.33;;;;;;;17.37;41.84;100167.59;5104270;27;20049;-67
2022/06/29 02:26:00;;;;;;;8.65;3.53;;;;;;;17.39;42.58;100162.91;5119696;27;20147;-71
2022/06/29 02:28:25;;;;;;;5.97;3.42;;;;;;;17.47;42.56;100164.91;5121283;27;20087;-70
2022/06/29 02:36:16;;;;;;;7.55;3.88;;;;;;;17.69;42.07;100161.97;5118453;27;20074;-67
2022/06/29 02:38:41;;;;;;;6.93;3.50;;;;;;;17.73;41.63;100157.97;5119298;27;21134;-70
2022/06/29 02:41:06;;;;;;;12.98;4.57;;;;;;;17.76;41.86;100158.53;5101803;27;20510;-67
2022/06/29 02:43:30;;;;;;;9.25;4.20;;;;;;;17.84;41.69;100155.13;5107907;27;20035;-69
2022/06/29 02:45:55;;;;;;;14.55;4.75;;;;;;;17.85;41.00;100146.03;5111606;27;20034;-68
2022/06/29 02:48:20;;;;;;;7.47;3.50;;;;;;;17.86;41.09;100152.28;5127004;27;20053;-70
2022/06/29 02:50:45;;;;;;;5.72;3.10;;;;;;;17.85;41.82;100147.88;5119321;27;20042;-70
2022/06/29 02:53:10;;;;;;;7.63;3.38;;;;;;;17.84;41.34;100151.56;5101415;27;20450;-75
2022/06/29 02:55:35;;;;;;;7.78;3.33;;;;;;;17.94;41.09;100158.69;5103112;27;20137;-75
2022/06/29 02:58:00;;;;;;;6.80;3.80;;;;;;;18.00;41.13;100157.25;5120593;27;20065;-70
2022/06/29 03:00:24;;;;;;;12.40;4.43;;;;;;;18.06;40.99;100154.81;5117537;27;20042;-72
2022/06/29 03:02:49;;;;;;;5.32;3.50;;;;;;;18.11;41.40;100162.47;5101022;27;20118;-72
2022/06/29 03:05:14;;;;;;;6.45;3.83;;;;;;;18.18;41.41;100151.94;5119308;27;20133;-74
2022/06/29 03:07:39;;;;;;;9.50;4.05;;;;;;;18.24;40.42;100152.22;5083511;27;20042;-71
2022/06/29 03:10:04;;;;;;;5.07;3.13;;;;;;;18.32;40.29;100155.03;5117733;27;20091;-70
2022/06/29 03:12:29;;;;;;;7.53;3.50;;;;;;;18.40;40.56;100146.19;5116615;27;20039;-70
2022/06/29 03:14:54;;;;;;;5.45;3.33;;;;;;;18.41;41.08;100148.75;5097710;27;20065;-70
2022/06/29 03:17:19;;;;;;;9.55;3.88;;;;;;;18.45;40.76;100141.22;5123473;27;20030;-71
2022/06/29 03:19:43;;;;;;;6.45;3.45;;;;;;;18.55;40.50;100139.31;5116345;27;20050;-71
2022/06/29 03:22:08;;;;;;;9.65;3.70;;;;;;;18.60;40.00;100128.97;5116381;27;20043;-72
2022/06/29 03:24:33;;;;;;;8.77;3.53;;;;;;;18.66;39.54;100141.88;5103212;27;20042;-72
2022/06/29 03:26:58;;;;;;;8.70;3.83;;;;;;;18.69;39.47;100138.88;5089297;27;20102;-75
2022/06/29 03:29:23;;;;;;;6.38;3.63;;;;;;;18.78;39.65;100139.81;5120926;27;20103;-72
2022/06/29 03:31:47;;;;;;;5.75;3.15;;;;;;;18.92;39.50;100138.47;5114544;27;20051;-70
2022/06/29 03:34:12;;;;;;;6.70;3.85;;;;;;;19.03;39.75;100144.53;5097353;27;20034;-72
2022/06/29 03:36:37;;;;;;;5.93;3.63;;;;;;;19.16;38.65;100139.63;5079582;27;20046;-71
2022/06/29 03:39:02;;;;;;;8.77;4.30;;;;;;;19.18;38.91;100151.13;5109573;27;20039;-71
2022/06/29 03:41:27;;;;;;;7.07;3.47;;;;;;;19.26;39.03;100146.81;5115957;27;20114;-71
2022/06/29 03:43:52;;;;;;;6.03;3.13;;;;;;;19.38;38.54;100145.56;5116047;27;20040;-71
2022/06/29 03:46:17;;;;;;;5.72;3.83;;;;;;;19.49;38.04;100146.22;5116877;27;20044;-75
2022/06/29 03:48:42;;;;;;;6.60;3.25;;;;;;;19.58;37.61;100161.53;5117240;27;20050;-70
2022/06/29 03:51:06;;;;;;;4.80;3.50;;;;;;;19.67;37.69;100153.47;5117227;27;20046;-73
2022/06/29 03:53:31;;;;;;;8.25;3.55;;;;;;;19.78;37.79;100155.94;5098704;27;20469;-74
2022/06/29 03:55:56;;;;;;;6.47;2.90;;;;;;;19.96;37.93;100153.22;5099579;27;20110;-74
2022/06/29 03:58:21;;;;;;;6.20;3.38;;;;;;;20.17;37.49;100153.72;5133360;27;20034;-72
2022/06/29 04:00:46;;;;;;;5.82;3.33;;;;;;;20.29;36.90;100155.16;5134572;27;20186;-74
2022/06/29 04:03:11;;;;;;;4.10;3.33;;;;;;;20.41;36.97;100148.50;5132032;27;20019;-75
2022/06/29 04:05:35;;;;;;;5.03;3.65;;;;;;;20.55;37.10;100150.59;5126074;27;20039;-75
2022/06/29 04:08:00;;;;;;;6.45;3.60;;;;;;;20.66;36.79;100150.31;5119313;27;20045;-75
2022/06/29 04:10:25;;;;;;;3.83;2.88;;;;;;;20.75;36.41;100136.81;5118749;27;20038;-74
2022/06/29 04:12:50;;;;;;;6.45;3.47;;;;;;;20.83;35.87;100140.41;5130386;27;20058;-74
2022/06/29 04:15:15;;;;;;;5.82;3.75;;;;;;;20.91;35.87;100142.28;5113073;27;20049;-74
2022/06/29 04:17:39;;;;;;;9.45;3.78;;;;;;;21.02;35.43;100133.88;5112990;27;20042;-73
2022/06/29 04:20:05;;;;;;;7.70;3.67;;;;;;;21.07;35.59;100126.09;5113347;27;20081;-75
2022/06/29 04:22:30;;;;;;;6.60;3.50;;;;;;;21.21;35.37;100130.91;5121634;27;20078;-74
2022/06/29 04:24:55;;;;;;;5.00;3.00;;;;;;;21.19;35.04;100130.22;5098601;27;20507;-74
2022/06/29 04:27:20;;;;;;;7.45;4.15;;;;;;;21.24;35.08;100136.00;5081068;27;20497;-72
2022/06/29 04:29:45;;;;;;;5.28;3.30;;;;;;;21.33;34.89;100134.16;5117858;27;20050;-74
2022/06/29 04:32:10;;;;;;;5.32;3.80;;;;;;;21.41;34.32;100144.16;5116759;27;20077;-74
2022/06/29 04:34:35;;;;;;;7.57;3.45;;;;;;;21.44;34.01;100138.41;5117231;27;20070;-75
2022/06/29 04:37:00;;;;;;;5.63;2.97;;;;;;;21.52;33.90;100141.13;5116471;27;20077;-77
2022/06/29 04:39:25;;;;;;;6.13;3.55;;;;;;;21.64;34.08;100139.78;5063802;27;20614;-74
2022/06/29 04:41:52;;;;;;;4.70;3.03;;;;;;;21.84;33.86;100141.16;5063580;27;20053;-76
2022/06/29 04:44:17;;;;;;;5.55;3.20;;;;;;;22.05;33.32;100136.09;5116800;27;20053;-75
2022/06/29 04:46:42;;;;;;;6.40;3.20;;;;;;;22.36;33.24;100146.22;5097344;27;20038;-72
2022/06/29 04:49:07;;;;;;;8.93;3.42;;;;;;;22.62;31.61;100135.97;5097908;27;20122;-73
2022/06/29 04:51:35;;;;;;;6.40;3.50;;;;;;;22.61;31.46;100141.56;5097352;27;20050;-73
2022/06/29 04:54:00;;;;;;;9.98;3.38;;;;;;;22.70;31.47;100141.34;5116149;27;20509;-72
2022/06/29 04:56:30;;;;;;;11.63;3.35;;;;;;;22.81;31.74;100149.16;5098055;27;20038;-73
2022/06/29 04:58:57;;;;;;;5.38;3.53;;;;;;;23.12;31.12;100151.09;5116447;27;20038;-74
2022/06/29 05:01:24;;;;;;;10.43;4.47;;;;;;;23.50;30.24;100147.47;5097019;27;20508;-73
2022/06/29 05:03:50;;;;;;;6.43;3.20;;;;;;;23.97;29.70;100146.41;5097727;27;20496;-72
2022/06/29 05:06:14;;;;;;;4.07;3.15;;;;;;;24.50;30.00;100141.81;5115664;27;20516;-73
2022/06/29 05:08:39;;;;;;;5.50;4.10;;;;;;;24.95;29.46;100155.28;5098228;27;20841;-73
2022/06/29 05:11:04;;;;;;;8.73;3.22;;;;;;;25.21;28.48;100156.66;5116284;27;20046;-74
2022/06/29 05:13:29;;;;;;;8.70;4.28;;;;;;;25.35;27.68;100164.00;5115873;27;20141;-70
2022/06/29 05:15:54;;;;;;;5.00;3.00;;;;;;;25.41;27.06;100163.19;5082237;27;20957;-70
2022/06/29 05:18:19;;;;;;;4.35;3.30;;;;;;;25.43;26.81;100161.13;5116488;27;20042;-69
2022/06/29 05:20:44;;;;;;;4.40;3.03;;;;;;;25.59;26.78;100165.50;5098997;27;20059;-70
2022/06/29 05:23:10;;;;;;;5.55;3.72;;;;;;;25.59;26.38;100169.09;5117510;27;20053;-71
2022/06/29 05:25:35;;;;;;;7.25;3.30;;;;;;;25.60;26.49;100168.09;5119327;27;20409;-70
2022/06/29 05:28:00;;;;;;;5.05;3.30;;;;;;;25.82;26.42;100173.56;5103140;27;20413;-69
2022/06/29 05:30:24;;;;;;;5.18;3.35;;;;;;;26.04;26.38;100167.88;5117278;27;20047;-75
2022/06/29 05:32:49;;;;;;;7.65;3.30;;;;;;;26.31;25.32;100166.22;5087744;28;20043;-70
2022/06/29 05:35:14;;;;;;;9.93;3.78;;;;;;;26.43;26.16;100161.06;5070984;28;20058;-68
2022/06/29 05:37:39;;;;;;;11.60;4.00;;;;;;;26.68;25.38;100175.13;5094102;28;20417;-69
2022/06/29 05:40:04;;;;;;;11.23;4.53;;;;;;;27.00;25.36;100160.81;5097310;28;20043;-68
2022/06/29 05:42:29;;;;;;;10.95;3.92;;;;;;;27.29;25.17;100172.53;5096610;28;20046;-69
2022/06/29 05:44:54;;;;;;;4.55;3.38;;;;;;;27.18;24.72;100173.94;5096199;28;20035;-69
2022/06/29 05:47:19;;;;;;;9.05;3.42;;;;;;;27.06;25.27;100165.47;5095512;28;20489;-70
2022/06/29 05:49:44;;;;;;;5.30;3.40;;;;;;;27.25;25.03;100157.53;5090722;28;20035;-69
2022/06/29 05:52:09;;;;;;;6.30;3.47;;;;;;;27.44;23.89;100154.00;5086566;28;20546;-68
2022/06/29 05:54:34;;;;;;;3.67;3.20;;;;;;;27.59;23.73;100153.88;5093629;28;20051;-68
2022/06/29 05:56:58;;;;;;;7.03;3.38;;;;;;;27.94;24.08;100143.59;5095114;28;20043;-69
2022/06/29 05:59:23;;;;;;;12.88;3.95;;;;;;;28.33;23.41;100149.09;5094515;28;20042;-68
2022/06/29 06:01:48;;;;;;;7.78;4.05;;;;;;;28.71;22.79;100149.25;5092346;27;20050;-68
2022/06/29 06:04:13;;;;;;;5.07;3.13;;;;;;;28.95;22.13;100149.63;5091108;27;20039;-68
2022/06/29 06:06:37;;;;;;;8.02;3.90;;;;;;;29.17;21.90;100143.63;5100292;27;20039;-71
2022/06/29 06:09:03;;;;;;;4.13;2.75;;;;;;;29.68;21.95;100140.00;5098743;27;20038;-68
2022/06/29 06:11:28;;;;;;;7.93;4.90;;;;;;;30.16;21.31;100137.53;5098585;27;20528;-70
2022/06/29 06:13:52;;;;;;;4.55;3.72;;;;;;;30.46;20.60;100140.44;5096138;27;20035;-69
2022/06/29 06:16:17;;;;;;;6.65;3.47;;;;;;;30.80;19.95;100149.22;5090713;27;20063;-68
2022/06/29 06:18:42;;;;;;;15.52;3.72;;;;;;;31.01;19.19;100146.00;5096007;27;20042;-69
2022/06/29 06:21:07;;;;;;;6.10;3.78;;;;;;;31.35;19.12;100145.38;5092192;27;20065;-69
2022/06/29 06:23:31;;;;;;;8.18;3.50;;;;;;;32.16;18.93;100140.38;5100082;27;20091;-69
2022/06/29 06:25:56;;;;;;;3.72;3.30;;;;;;;33.03;18.21;100135.78;5119016;27;20086;-68
2022/06/29 06:28:21;;;;;;;5.25;3.35;;;;;;;33.85;17.01;100134.41;5118611;27;20039;-70
2022/06/29 06:30:46;;;;;;;5.68;3.63;;;;;;;34.33;16.47;100129.38;5118999;27;20047;-71
2022/06/29 06:33:10;;;;;;;8.88;3.70;;;;;;;35.02;17.01;100130.69;5118267;27;20038;-71
2022/06/29 06:35:35;;;;;;;4.30;3.83;;;;;;;35.74;16.35;100135.16;5118474;27;20046;-70
2022/06/29 06:38:01;;;;;;;5.07;3.60;;;;;;;35.48;15.62;100126.53;5118535;27;20039;-69
2022/06/29 06:43:09;;;;;;;7.88;4.78;;;;;;;35.46;15.30;100130.66;5101078;27;20035;-71
2022/06/29 06:45:34;;;;;;;8.27;3.72;;;;;;;35.81;15.32;100122.72;5102672;27;20038;-70
2022/06/29 06:47:59;;;;;;;4.40;3.90;;;;;;;36.22;15.29;100123.97;5105620;27;20559;-71
2022/06/29 06:50:24;;;;;;;4.93;3.90;;;;;;;36.65;14.64;100114.50;5103595;27;20043;-68
2022/06/29 06:52:48;;;;;;;7.25;4.35;;;;;;;36.58;14.46;100111.13;5119363;27;20054;-71
2022/06/29 06:55:13;;;;;;;6.25;4.00;;;;;;;36.72;15.02;100117.06;5087866;27;20074;-70
2022/06/29 06:57:39;;;;;;;4.95;4.43;;;;;;;36.87;14.31;100106.03;5105390;27;20052;-71
2022/06/29 07:00:04;;;;;;;8.18;6.15;;;;;;;37.38;14.46;100109.00;5100973;27;20409;-71
2022/06/29 07:02:29;;;;;;;7.00;4.70;;;;;;;38.19;13.94;100100.78;5101758;27;20043;-70
2022/06/29 07:04:54;;;;;;;9.25;7.60;;;;;;;38.68;12.73;100120.50;5123372;27;20107;-70
2022/06/29 07:07:19;;;;;;;5.55;5.00;;;;;;;38.80;12.86;100114.59;5126225;27;20038;-70
2022/06/29 07:09:43;;;;;;;7.70;4.82;;;;;;;38.63;13.03;100117.72;5109340;27;20551;-70
2022/06/29 07:12:09;;;;;;;6.03;4.30;;;;;;;38.11;13.18;100121.69;5107751;27;20504;-70
2022/06/29 07:14:34;;;;;;;10.40;4.72;;;;;;;37.61;13.29;100118.78;5102664;27;20042;-71
2022/06/29 07:16:58;;;;;;;8.70;5.13;;;;;;;36.82;14.19;100117.13;5105477;27;20039;-72
2022/06/29 07:19:24;;;;;;;7.22;4.78;;;;;;;36.43;14.18;100115.75;5100963;27;20493;-71
2022/06/29 07:21:49;;;;;;;6.63;4.70;;;;;;;36.33;13.91;100114.59;5117705;27;20046;-70
2022/06/29 07:24:14;;;;;;;7.97;4.90;;;;;;;36.03;14.05;100101.28;5117088;27;20057;-70
2022/06/29 07:26:39;;;;;;;6.10;4.88;;;;;;;36.32;14.57;100100.97;5099082;27;20023;-70
2022/06/29 07:29:04;;;;;;;5.10;4.60;;;;;;;36.75;13.71;100105.41;5117265;27;20046;-70
2022/06/29 07:31:28;;;;;;;5.20;4.10;;;;;;;37.18;13.58;100100.63;5117301;27;20042;-72
2022/06/29 07:33:53;;;;;;;4.80;4.35;;;;;;;37.79;12.97;100109.94;5116982;27;20050;-70
2022/06/29 07:36:18;;;;;;;6.78;4.28;;;;;;;38.45;12.57;100109.94;5117191;27;20041;-71
2022/06/29 07:38:43;;;;;;;6.15;4.57;;;;;;;38.93;12.92;100116.78;5098377;27;20041;-71
2022/06/29 07:41:08;;;;;;;6.55;5.18;;;;;;;39.24;12.15;100114.72;5081273;27;20042;-72
2022/06/29 07:43:32;;;;;;;9.93;5.60;;;;;;;39.78;12.19;100108.25;5081382;27;20043;-72
2022/06/29 07:45:57;;;;;;;8.05;5.45;;;;;;;40.96;11.18;100116.06;5117211;27;20043;-69
2022/06/29 07:48:22;;;;;;;8.93;5.15;;;;;;;42.54;10.09;100108.06;5117105;27;20042;-71
2022/06/29 07:50:47;;;;;;;12.15;5.85;;;;;;;43.85;9.27;100104.38;5081298;27;20045;-69
2022/06/29 07:53:12;;;;;;;12.15;6.40;;;;;;;43.91;8.85;100105.88;5117037;27;20043;-70
2022/06/29 07:55:37;;;;;;;7.05;5.88;;;;;;;43.81;9.09;100106.97;5081382;27;20129;-71
2022/06/29 07:58:02;;;;;;;6.07;5.53;;;;;;;44.15;9.10;100106.41;5117393;27;20108;-73
2022/06/29 08:00:27;;;;;;;10.88;6.88;;;;;;;44.71;9.61;100107.69;5100245;27;20038;-74
2022/06/29 08:02:51;;;;;;;6.57;6.07;;;;;;;44.89;8.53;100097.38;5102465;27;20047;-72
2022/06/29 08:05:16;;;;;;;7.63;6.43;;;;;;;44.68;8.62;100105.56;5117304;27;20047;-71
2022/06/29 08:07:41;;;;;;;8.55;6.47;;;;;;;44.22;9.05;100086.28;5098650;27;20501;-75
2022/06/29 08:10:08;;;;;;;7.40;6.13;;;;;;;43.42;9.01;100096.41;5098086;27;20035;-74
2022/06/29 08:12:35;;;;;;;6.68;6.18;;;;;;;43.07;9.97;100085.94;5117595;27;20042;-73
2022/06/29 08:14:59;;;;;;;7.07;6.47;;;;;;;43.42;9.80;100079.53;5097869;27;20042;-73
2022/06/29 08:17:24;;;;;;;7.65;6.85;;;;;;;44.08;9.16;100069.50;5116324;27;20056;-70
2022/06/29 08:19:50;;;;;;;6.55;6.05;;;;;;;44.56;9.15;100074.41;5097259;27;20466;-71
2022/06/29 08:22:15;;;;;;;7.47;6.70;;;;;;;45.04;8.38;100068.75;5094240;27;20047;-70
2022/06/29 08:24:39;;;;;;;7.55;6.85;;;;;;;45.79;8.38;100075.16;5112983;27;20057;-75
2022/06/29 08:27:04;;;;;;;12.07;7.47;;;;;;;45.96;7.50;100061.03;5115624;27;20039;-73
2022/06/29 08:29:29;;;;;;;8.52;7.55;;;;;;;45.65;7.87;100077.31;5098031;27;20054;-77
2022/06/29 08:31:53;;;;;;;9.18;8.27;;;;;;;46.01;8.30;100068.50;5116277;27;20061;-77
2022/06/29 08:34:24;;;;;;;8.10;7.30;;;;;;;45.88;7.87;100079.63;5080331;27;20125;-75
2022/06/29 08:36:49;;;;;;;10.55;7.35;;;;;;;45.42;8.31;100063.38;5115937;27;20557;-77
2022/06/29 08:39:14;;;;;;;7.75;6.90;;;;;;;45.72;8.28;100057.91;5116294;27;20109;-75
2022/06/29 08:41:40;;;;;;;8.50;7.90;;;;;;;46.44;7.99;100065.56;5116303;27;20412;-75
2022/06/29 08:44:05;;;;;;;10.15;9.35;;;;;;;47.28;7.76;100064.63;5099273;27;20088;-76
2022/06/29 08:46:30;;;;;;;9.23;8.32;;;;;;;48.13;7.56;100069.88;5115641;27;20038;-74
2022/06/29 08:48:55;;;;;;;14.32;10.45;;;;;;;48.85;6.95;100069.16;5116068;27;20031;-74
2022/06/29 08:51:22;;;;;;;11.57;10.75;;;;;;;49.50;6.75;100072.81;5115246;27;20492;-73
2022/06/29 08:53:49;;;;;;;11.73;10.73;;;;;;;48.57;6.38;100066.19;5097403;27;20101;-72
2022/06/29 08:56:15;;;;;;;10.38;9.35;;;;;;;47.39;6.74;100065.06;5097050;27;20105;-72
2022/06/29 08:58:41;;;;;;;12.30;9.50;;;;;;;45.91;7.09;100058.41;5115775;27;20070;-72
2022/06/29 09:01:06;;;;;;;8.50;7.80;;;;;;;44.98;7.98;100052.38;5115632;27;20045;-73
2022/06/29 09:03:30;;;;;;;8.65;7.95;;;;;;;45.18;7.76;100046.13;5115534;27;20512;-73
2022/06/29 09:05:56;;;;;;;10.45;8.32;;;;;;;45.73;8.13;100048.28;5115340;27;20102;-74
2022/06/29 09:08:21;;;;;;;8.82;7.97;;;;;;;46.35;7.28;100056.31;5115781;27;20043;-74
2022/06/29 09:10:46;;;;;;;10.10;9.10;;;;;;;46.66;7.28;100062.50;5116369;27;20043;-74
2022/06/29 09:13:17;;;;;;;11.55;10.38;;;;;;;47.02;7.07;100058.34;5117356;27;20049;-73
2022/06/29 09:15:42;;;;;;;10.73;9.85;;;;;;;47.85;6.90;100047.88;5108557;27;20046;-72
2022/06/29 09:18:25;;;;;;;11.05;10.27;;;;;;;49.47;6.23;100062.19;5098178;27;20422;-71
2022/06/29 09:20:55;;;;;;;14.20;13.02;;;;;;;49.51;6.05;100051.81;5115702;27;20055;-71
2022/06/29 09:23:20;;;;;;;17.27;15.55;;;;;;;49.85;6.09;100049.53;5097712;27;20038;-72
2022/06/29 09:25:45;;;;;;;15.82;14.82;;;;;;;49.95;5.87;100049.84;5116009;27;20509;-73
2022/06/29 09:28:31;;;;;;;17.48;16.30;;;;;;;51.02;5.99;100056.25;5115723;27;20094;-73
2022/06/29 09:30:57;;;;;;;20.50;18.75;;;;;;;50.24;5.62;100044.97;5115718;27;20037;-73
2022/06/29 09:33:27;;;;;;;17.48;16.27;;;;;;;50.23;6.07;100041.31;5115709;27;20436;-73
2022/06/29 09:36:16;;;;;;;17.85;16.70;;;;;;;51.11;5.89;100051.22;5117194;27;20404;-73
2022/06/29 09:38:41;;;;;;;17.35;16.35;;;;;;;49.96;5.94;100033.66;5121711;27;20459;-73
2022/06/29 09:41:11;;;;;;;19.27;17.75;;;;;;;49.67;5.69;100044.16;5121698;27;20380;-76
2022/06/29 09:43:46;;;;;;;14.80;13.90;;;;;;;49.52;5.94;100047.81;5100504;27;20617;-77
2022/06/29 09:46:13;;;;;;;18.02;16.52;;;;;;;49.12;6.35;100044.09;5119772;27;20031;-76
2022/06/29 09:48:40;;;;;;;15.27;13.98;;;;;;;48.44;6.35;100041.03;5119738;27;20046;-74
2022/06/29 09:51:51;;;;;;;13.80;12.70;;;;;;;48.05;6.71;100032.00;5119352;27;20523;-75
2022/06/29 09:54:01;;;;;;;16.95;15.63;;;;;;;49.19;6.40;100042.34;5093573;27;20054;-74
2022/06/29 09:56:29;;;;;;;16.92;15.82;;;;;;;50.06;5.96;100041.63;5100764;27;20111;-76
2022/06/29 09:58:57;;;;;;;18.73;17.23;;;;;;;50.93;5.59;100038.63;5119628;27;20433;-74
2022/06/29 10:04:07;;;;;;;22.23;20.63;;;;;;;52.58;4.95;100035.91;5100698;27;20047;-76
2022/06/29 10:06:32;;;;;;;26.42;24.58;;;;;;;53.18;4.81;100044.50;5120067;27;20039;-75
2022/06/29 10:08:58;;;;;;;30.65;28.88;;;;;;;53.82;4.55;100040.47;5119206;27;20042;-76
2022/06/29 10:14:42;;;;;;;31.65;30.13;;;;;;;53.68;4.26;100037.47;5119542;27;20053;-74
2022/06/29 10:17:29;;;;;;;32.65;30.73;;;;;;;53.49;3.72;100043.34;5100961;27;20077;-75
2022/06/29 10:20:30;;;;;;;37.58;35.67;;;;;;;54.74;3.71;100043.41;5120802;27;20077;-74
2022/06/29 10:22:55;;;;;;;40.17;37.88;;;;;;;54.33;3.63;100036.94;5127828;27;20045;-75
2022/06/29 10:25:27;;;;;;;37.65;35.65;;;;;;;53.84;3.54;100038.06;5122746;27;20523;-74
2022/06/29 10:28:20;;;;;;;36.75;35.05;;;;;;;54.29;3.74;100036.09;5120879;27;20046;-75
2022/06/29 10:30:46;;;;;;;40.25;38.35;;;;;;;53.68;3.89;100028.09;5121865;27;20500;-74
2022/06/29 10:33:29;;;;;;;38.95;36.80;;;;;;;54.51;3.38;100031.41;5121586;27;20483;-75
2022/06/29 10:36:04;;;;;;;33.35;31.27;;;;;;;52.43;4.16;100029.09;5102960;27;20034;-74
2022/06/29 10:38:31;;;;;;;21.80;20.50;;;;;;;48.04;5.63;100004.91;5104517;27;20103;-75
2022/06/29 10:43:07;;;;;;;15.65;14.23;;;;;;;45.04;6.89;100006.03;5104870;27;20043;-74
2022/06/29 10:43:54;;;;;;;10.13;9.20;;;;;;;41.35;8.82;99986.28;5124762;27;20084;-74
2022/06/29 10:46:24;;;;;;;11.50;8.70;;;;;;;39.16;10.45;99976.72;5106564;27;20038;-76
2022/06/29 10:49:19;;;;;;;8.40;6.63;;;;;;;37.77;11.47;99968.28;5103896;27;20031;-74
2022/06/29 10:51:45;;;;;;;6.13;5.35;;;;;;;35.67;12.98;99960.56;5126300;27;20041;-76
2022/06/29 10:54:22;;;;;;;8.45;7.07;;;;;;;34.82;13.30;99959.50;5090599;27;20129;-74
2022/06/29 10:56:47;;;;;;;5.65;4.75;;;;;;;33.26;14.49;99956.13;5105473;27;20084;-74
2022/06/29 10:59:30;;;;;;;6.47;5.35;;;;;;;32.71;14.38;99959.50;5106038;27;20043;-74
2022/06/29 11:02:16;;;;;;;8.27;5.32;;;;;;;31.37;15.56;99953.13;5124917;27;20043;-73
2022/06/29 11:04:42;;;;;;;7.88;4.70;;;;;;;30.08;17.22;99950.00;5123645;27;20043;-73
2022/06/29 11:12:45;;;;;;;4.60;4.20;;;;;;;28.45;18.79;99949.91;5123953;27;20149;-77
2022/06/29 11:17:53;;;;;;;9.47;3.80;;;;;;;27.51;19.53;99941.28;5084329;27;20047;-75
2022/06/29 11:20:20;;;;;;;6.20;3.83;;;;;;;27.19;20.05;99947.59;5131086;27;20134;-76
2022/06/29 11:22:49;;;;;;;7.05;4.50;;;;;;;27.01;19.12;99939.97;5103713;27;20397;-75
2022/06/29 11:25:14;;;;;;;9.82;4.22;;;;;;;26.64;19.96;99942.19;5118013;27;20049;-75
2022/06/29 11:27:39;;;;;;;7.68;3.60;;;;;;;26.42;20.51;99928.84;5121560;27;20086;-77
2022/06/29 11:30:07;;;;;;;4.88;3.65;;;;;;;26.25;20.77;99939.28;5119135;27;20054;-74
2022/06/29 11:32:36;;;;;;;3.88;3.35;;;;;;;26.06;20.37;99929.13;5100219;27;20047;-73
2022/06/29 11:35:01;;;;;;;6.25;3.70;;;;;;;25.76;20.75;99926.63;5075787;27;20045;-73
2022/06/29 11:37:27;;;;;;;7.00;3.88;;;;;;;25.59;20.99;99917.88;5103921;27;20046;-74
2022/06/29 11:39:54;;;;;;;5.13;4.15;;;;;;;25.36;21.63;99925.50;5120852;27;20038;-76
2022/06/29 11:45:17;;;;;;;5.97;3.88;;;;;;;24.77;22.17;99911.28;5118253;27;20063;-74